sensor_id;sensor_type;location;lat;lon;timestamp;temperature;humidity
31783;DHT22;18351;47.560;9.708;2023-02-19T00:00:57;10.60;99.90
31783;DHT22;18351;47.560;9.708;2023-02-19T00:03:23;10.60;99.90
31783;DHT22;18351;47.560;9.708;2023-02-19T00:05:48;10.60;99.90
31783;DHT22;18351;47.560;9.708;2023-02-19T00:08:14;10.60;99.90
31783;DHT22;18351;47.560;9.708;2023-02-19T00:10:39;10.60;99.90
31783;DHT22;18351;47.560;9.708;2023-02-19T00:13:05;10.60;99.90
31783;DHT22;18351;47.560;9.708;2023-02-19T00:15:33;10.60;99.90
31783;DHT22;18351;47.560;9.708;2023-02-19T00:17:59;10.60;99.90
31783;DHT22;18351;47.560;9.708;2023-02-19T00:20:24;10.70;99.90
31783;DHT22;18351;47.560;9.708;2023-02-19T00:22:50;10.60;99.90
31783;DHT22;18351;47.560;9.708;2023-02-19T00:25:15;10.60;99.90
31783;DHT22;18351;47.560;9.708;2023-02-19T00:27:41;10.50;99.90
31783;DHT22;18351;47.560;9.708;2023-02-19T00:30:07;10.40;99.90
31783;DHT22;18351;47.560;9.708;2023-02-19T00:32:33;10.30;99.90
31783;DHT22;18351;47.560;9.708;2023-02-19T00:34:58;10.30;99.90
31783;DHT22;18351;47.560;9.708;2023-02-19T00:37:24;10.20;99.90
31783;DHT22;18351;47.560;9.708;2023-02-19T00:39:49;10.10;99.90
31783;DHT22;18351;47.560;9.708;2023-02-19T00:42:15;10.00;99.90
31783;DHT22;18351;47.560;9.708;2023-02-19T00:44:40;9.90;99.90
31783;DHT22;18351;47.560;9.708;2023-02-19T00:47:06;9.90;99.90
31783;DHT22;18351;47.560;9.708;2023-02-19T00:49:31;9.90;99.90
31783;DHT22;18351;47.560;9.708;2023-02-19T00:51:57;9.80;99.90
31783;DHT22;18351;47.560;9.708;2023-02-19T00:54:23;9.80;99.90
31783;DHT22;18351;47.560;9.708;2023-02-19T00:56:49;9.70;99.90
31783;DHT22;18351;47.560;9.708;2023-02-19T00:59:14;9.70;99.90
31783;DHT22;18351;47.560;9.708;2023-02-19T01:01:41;9.70;99.90
31783;DHT22;18351;47.560;9.708;2023-02-19T01:04:08;9.60;99.90
31783;DHT22;18351;47.560;9.708;2023-02-19T01:06:34;9.70;99.90
31783;DHT22;18351;47.560;9.708;2023-02-19T01:08:59;9.70;99.90
31783;DHT22;18351;47.560;9.708;2023-02-19T01:11:25;9.60;99.90
31783;DHT22;18351;47.560;9.708;2023-02-19T01:13:52;9.60;99.90
31783;DHT22;18351;47.560;9.708;2023-02-19T01:16:21;9.60;99.90
31783;DHT22;18351;47.560;9.708;2023-02-19T01:18:49;9.60;99.90
31783;DHT22;18351;47.560;9.708;2023-02-19T01:21:17;9.60;99.90
31783;DHT22;18351;47.560;9.708;2023-02-19T01:23:44;9.60;99.90
31783;DHT22;18351;47.560;9.708;2023-02-19T01:26:16;9.50;99.90
31783;DHT22;18351;47.560;9.708;2023-02-19T01:28:42;9.50;99.90
31783;DHT22;18351;47.560;9.708;2023-02-19T01:31:11;9.60;99.90
31783;DHT22;18351;47.560;9.708;2023-02-19T01:33:37;9.60;99.90
31783;DHT22;18351;47.560;9.708;2023-02-19T01:36:04;9.60;99.90
31783;DHT22;18351;47.560;9.708;2023-02-19T01:38:30;9.50;99.90
31783;DHT22;18351;47.560;9.708;2023-02-19T01:41:01;9.60;99.90
31783;DHT22;18351;47.560;9.708;2023-02-19T01:43:27;9.60;99.90
31783;DHT22;18351;47.560;9.708;2023-02-19T01:45:54;9.60;99.90
31783;DHT22;18351;47.560;9.708;2023-02-19T01:48:24;9.60;99.90
31783;DHT22;18351;47.560;9.708;2023-02-19T01:51:02;9.50;99.90
31783;DHT22;18351;47.560;9.708;2023-02-19T01:53:32;9.60;99.90
31783;DHT22;18351;47.560;9.708;2023-02-19T01:55:59;9.50;99.90
31783;DHT22;18351;47.560;9.708;2023-02-19T01:58:29;9.50;99.90
31783;DHT22;18351;47.560;9.708;2023-02-19T02:00:56;9.50;99.90
31783;DHT22;18351;47.560;9.708;2023-02-19T02:03:22;9.50;99.90
31783;DHT22;18351;47.560;9.708;2023-02-19T02:06:01;9.50;99.90
31783;DHT22;18351;47.560;9.708;2023-02-19T02:08:30;9.50;99.90
31783;DHT22;18351;47.560;9.708;2023-02-19T02:11:15;9.40;99.90
31783;DHT22;18351;47.560;9.708;2023-02-19T02:13:41;9.50;99.90
31783;DHT22;18351;47.560;9.708;2023-02-19T02:21:47;9.40;99.90
31783;DHT22;18351;47.560;9.708;2023-02-19T02:35:55;9.00;99.90
31783;DHT22;18351;47.560;9.708;2023-02-19T02:38:25;8.90;99.90
31783;DHT22;18351;47.560;9.708;2023-02-19T02:40:53;8.70;99.90
31783;DHT22;18351;47.560;9.708;2023-02-19T02:43:19;8.70;99.90
31783;DHT22;18351;47.560;9.708;2023-02-19T02:45:44;8.50;99.90
31783;DHT22;18351;47.560;9.708;2023-02-19T02:48:19;8.50;99.90
31783;DHT22;18351;47.560;9.708;2023-02-19T02:51:05;8.40;99.90
31783;DHT22;18351;47.560;9.708;2023-02-19T02:53:40;8.30;99.90
31783;DHT22;18351;47.560;9.708;2023-02-19T02:56:27;8.30;99.90
31783;DHT22;18351;47.560;9.708;2023-02-19T02:58:55;8.20;99.90
31783;DHT22;18351;47.560;9.708;2023-02-19T03:01:32;8.30;99.90
31783;DHT22;18351;47.560;9.708;2023-02-19T03:05:08;8.20;99.90
31783;DHT22;18351;47.560;9.708;2023-02-19T03:07:55;8.20;99.90
31783;DHT22;18351;47.560;9.708;2023-02-19T03:10:26;8.20;99.90
31783;DHT22;18351;47.560;9.708;2023-02-19T03:12:54;8.20;99.90
31783;DHT22;18351;47.560;9.708;2023-02-19T03:15:48;8.30;99.90
31783;DHT22;18351;47.560;9.708;2023-02-19T03:18:34;8.30;99.90
31783;DHT22;18351;47.560;9.708;2023-02-19T03:21:21;8.30;99.90
31783;DHT22;18351;47.560;9.708;2023-02-19T03:23:48;8.30;99.90
31783;DHT22;18351;47.560;9.708;2023-02-19T03:26:35;8.30;99.90
31783;DHT22;18351;47.560;9.708;2023-02-19T03:29:02;8.20;99.90
31783;DHT22;18351;47.560;9.708;2023-02-19T03:31:48;8.30;99.90
31783;DHT22;18351;47.560;9.708;2023-02-19T03:34:23;8.30;99.90
31783;DHT22;18351;47.560;9.708;2023-02-19T03:36:59;8.20;99.90
31783;DHT22;18351;47.560;9.708;2023-02-19T03:39:26;8.30;99.90
31783;DHT22;18351;47.560;9.708;2023-02-19T03:44:36;8.20;99.90
31783;DHT22;18351;47.560;9.708;2023-02-19T03:47:06;8.20;99.90
31783;DHT22;18351;47.560;9.708;2023-02-19T03:57:21;8.20;99.90
31783;DHT22;18351;47.560;9.708;2023-02-19T03:59:58;8.20;99.90
31783;DHT22;18351;47.560;9.708;2023-02-19T04:02:34;8.20;99.90
31783;DHT22;18351;47.560;9.708;2023-02-19T04:05:18;8.20;99.90
31783;DHT22;18351;47.560;9.708;2023-02-19T04:07:48;8.20;99.90
31783;DHT22;18351;47.560;9.708;2023-02-19T04:10:16;8.20;99.90
31783;DHT22;18351;47.560;9.708;2023-02-19T04:12:47;8.20;99.90
31783;DHT22;18351;47.560;9.708;2023-02-19T04:15:17;8.20;99.90
31783;DHT22;18351;47.560;9.708;2023-02-19T04:17:52;8.30;99.90
31783;DHT22;18351;47.560;9.708;2023-02-19T04:20:19;8.30;99.90
31783;DHT22;18351;47.560;9.708;2023-02-19T04:22:46;8.30;99.90
31783;DHT22;18351;47.560;9.708;2023-02-19T04:25:13;8.30;99.90
31783;DHT22;18351;47.560;9.708;2023-02-19T04:27:38;8.30;99.90
31783;DHT22;18351;47.560;9.708;2023-02-19T04:30:05;8.30;99.90
31783;DHT22;18351;47.560;9.708;2023-02-19T04:32:32;8.30;99.90
31783;DHT22;18351;47.560;9.708;2023-02-19T04:34:57;8.30;99.90
31783;DHT22;18351;47.560;9.708;2023-02-19T04:37:23;8.30;99.90
31783;DHT22;18351;47.560;9.708;2023-02-19T04:39:48;8.30;99.90
31783;DHT22;18351;47.560;9.708;2023-02-19T04:42:14;8.40;99.90
31783;DHT22;18351;47.560;9.708;2023-02-19T04:44:39;8.40;99.90
31783;DHT22;18351;47.560;9.708;2023-02-19T04:47:05;8.30;99.90
31783;DHT22;18351;47.560;9.708;2023-02-19T04:49:31;8.40;99.90
31783;DHT22;18351;47.560;9.708;2023-02-19T04:51:56;8.30;99.90
31783;DHT22;18351;47.560;9.708;2023-02-19T04:54:22;8.30;99.90
31783;DHT22;18351;47.560;9.708;2023-02-19T04:56:47;8.30;99.90
31783;DHT22;18351;47.560;9.708;2023-02-19T04:59:15;8.30;99.90
31783;DHT22;18351;47.560;9.708;2023-02-19T05:01:40;8.30;99.90
31783;DHT22;18351;47.560;9.708;2023-02-19T05:04:06;8.20;99.90
31783;DHT22;18351;47.560;9.708;2023-02-19T05:06:31;8.10;99.90
31783;DHT22;18351;47.560;9.708;2023-02-19T05:08:57;8.00;99.90
31783;DHT22;18351;47.560;9.708;2023-02-19T05:11:23;8.10;99.90
31783;DHT22;18351;47.560;9.708;2023-02-19T05:13:49;8.10;99.90
31783;DHT22;18351;47.560;9.708;2023-02-19T05:16:14;8.10;99.90
31783;DHT22;18351;47.560;9.708;2023-02-19T05:18:42;7.90;99.90
31783;DHT22;18351;47.560;9.708;2023-02-19T05:21:09;7.90;99.90
31783;DHT22;18351;47.560;9.708;2023-02-19T05:23:34;7.90;99.90
31783;DHT22;18351;47.560;9.708;2023-02-19T05:26:17;7.80;99.90
31783;DHT22;18351;47.560;9.708;2023-02-19T05:28:47;7.70;99.90
31783;DHT22;18351;47.560;9.708;2023-02-19T05:31:13;7.70;99.90
31783;DHT22;18351;47.560;9.708;2023-02-19T05:33:39;7.80;99.90
31783;DHT22;18351;47.560;9.708;2023-02-19T05:36:11;7.80;99.90
31783;DHT22;18351;47.560;9.708;2023-02-19T05:38:38;7.80;99.90
31783;DHT22;18351;47.560;9.708;2023-02-19T05:41:11;7.90;99.90
31783;DHT22;18351;47.560;9.708;2023-02-19T05:43:38;7.80;99.90
31783;DHT22;18351;47.560;9.708;2023-02-19T05:46:04;7.90;99.90
31783;DHT22;18351;47.560;9.708;2023-02-19T05:48:30;7.90;99.90
31783;DHT22;18351;47.560;9.708;2023-02-19T05:51:01;7.90;99.90
31783;DHT22;18351;47.560;9.708;2023-02-19T05:53:27;7.90;99.90
31783;DHT22;18351;47.560;9.708;2023-02-19T05:55:53;7.90;99.90
31783;DHT22;18351;47.560;9.708;2023-02-19T05:58:18;7.90;99.90
31783;DHT22;18351;47.560;9.708;2023-02-19T06:00:44;7.90;99.90
31783;DHT22;18351;47.560;9.708;2023-02-19T06:03:09;7.90;99.90
31783;DHT22;18351;47.560;9.708;2023-02-19T06:05:36;7.90;99.90
31783;DHT22;18351;47.560;9.708;2023-02-19T06:08:02;7.90;99.90
31783;DHT22;18351;47.560;9.708;2023-02-19T06:10:27;7.90;99.90
31783;DHT22;18351;47.560;9.708;2023-02-19T06:12:53;7.90;99.90
31783;DHT22;18351;47.560;9.708;2023-02-19T06:15:19;8.10;99.90
31783;DHT22;18351;47.560;9.708;2023-02-19T06:17:44;8.00;99.90
31783;DHT22;18351;47.560;9.708;2023-02-19T06:20:10;8.00;99.90
31783;DHT22;18351;47.560;9.708;2023-02-19T06:22:36;8.00;99.90
31783;DHT22;18351;47.560;9.708;2023-02-19T06:25:01;8.10;99.90
31783;DHT22;18351;47.560;9.708;2023-02-19T06:27:27;8.10;99.90
31783;DHT22;18351;47.560;9.708;2023-02-19T06:29:53;8.10;99.90
31783;DHT22;18351;47.560;9.708;2023-02-19T06:32:18;8.10;99.90
31783;DHT22;18351;47.560;9.708;2023-02-19T06:34:44;8.10;99.90
31783;DHT22;18351;47.560;9.708;2023-02-19T06:37:09;8.20;99.90
31783;DHT22;18351;47.560;9.708;2023-02-19T06:39:35;8.20;99.90
31783;DHT22;18351;47.560;9.708;2023-02-19T06:42:01;8.20;99.90
31783;DHT22;18351;47.560;9.708;2023-02-19T06:44:26;8.20;99.90
31783;DHT22;18351;47.560;9.708;2023-02-19T06:46:54;8.20;99.90
31783;DHT22;18351;47.560;9.708;2023-02-19T06:49:20;8.20;99.90
31783;DHT22;18351;47.560;9.708;2023-02-19T06:51:45;8.30;99.90
31783;DHT22;18351;47.560;9.708;2023-02-19T06:54:11;8.40;99.90
31783;DHT22;18351;47.560;9.708;2023-02-19T06:56:38;8.40;99.90
31783;DHT22;18351;47.560;9.708;2023-02-19T06:59:07;8.40;99.90
31783;DHT22;18351;47.560;9.708;2023-02-19T07:01:34;8.50;99.90
31783;DHT22;18351;47.560;9.708;2023-02-19T07:04:00;8.50;99.90
31783;DHT22;18351;47.560;9.708;2023-02-19T07:06:26;8.60;99.90
31783;DHT22;18351;47.560;9.708;2023-02-19T07:08:54;8.60;99.90
31783;DHT22;18351;47.560;9.708;2023-02-19T07:11:19;8.60;99.90
31783;DHT22;18351;47.560;9.708;2023-02-19T07:13:49;8.60;99.90
31783;DHT22;18351;47.560;9.708;2023-02-19T07:16:18;8.60;99.90
31783;DHT22;18351;47.560;9.708;2023-02-19T07:18:43;8.70;99.90
31783;DHT22;18351;47.560;9.708;2023-02-19T07:21:11;8.70;99.90
31783;DHT22;18351;47.560;9.708;2023-02-19T07:23:38;8.70;99.90
31783;DHT22;18351;47.560;9.708;2023-02-19T07:26:04;8.70;99.90
31783;DHT22;18351;47.560;9.708;2023-02-19T07:28:32;8.70;99.90
31783;DHT22;18351;47.560;9.708;2023-02-19T07:31:02;8.70;99.90
31783;DHT22;18351;47.560;9.708;2023-02-19T07:33:27;8.70;99.90
31783;DHT22;18351;47.560;9.708;2023-02-19T07:35:53;8.70;99.90
31783;DHT22;18351;47.560;9.708;2023-02-19T07:38:20;8.70;99.90
31783;DHT22;18351;47.560;9.708;2023-02-19T07:40:56;8.70;99.90
31783;DHT22;18351;47.560;9.708;2023-02-19T07:43:23;8.70;99.90
31783;DHT22;18351;47.560;9.708;2023-02-19T07:45:49;8.70;99.90
31783;DHT22;18351;47.560;9.708;2023-02-19T07:48:15;8.70;99.90
31783;DHT22;18351;47.560;9.708;2023-02-19T07:50:41;8.70;99.90
31783;DHT22;18351;47.560;9.708;2023-02-19T07:53:07;8.70;99.90
31783;DHT22;18351;47.560;9.708;2023-02-19T07:55:33;8.70;99.90
31783;DHT22;18351;47.560;9.708;2023-02-19T07:57:59;8.70;99.90
31783;DHT22;18351;47.560;9.708;2023-02-19T08:00:26;8.80;99.90
31783;DHT22;18351;47.560;9.708;2023-02-19T08:02:52;8.80;99.90
31783;DHT22;18351;47.560;9.708;2023-02-19T08:05:25;8.80;99.90
31783;DHT22;18351;47.560;9.708;2023-02-19T08:07:50;8.80;99.90
31783;DHT22;18351;47.560;9.708;2023-02-19T08:10:16;8.90;99.90
31783;DHT22;18351;47.560;9.708;2023-02-19T08:13:00;8.90;99.90
31783;DHT22;18351;47.560;9.708;2023-02-19T08:15:48;8.90;99.90
31783;DHT22;18351;47.560;9.708;2023-02-19T08:18:16;8.90;99.90
31783;DHT22;18351;47.560;9.708;2023-02-19T08:20:42;8.90;99.90
31783;DHT22;18351;47.560;9.708;2023-02-19T08:23:08;8.90;99.90
31783;DHT22;18351;47.560;9.708;2023-02-19T08:25:35;9.00;99.90
31783;DHT22;18351;47.560;9.708;2023-02-19T08:28:00;9.10;99.90
31783;DHT22;18351;47.560;9.708;2023-02-19T08:30:28;9.10;99.90
31783;DHT22;18351;47.560;9.708;2023-02-19T08:32:54;9.30;99.90
31783;DHT22;18351;47.560;9.708;2023-02-19T08:35:19;9.30;99.90
31783;DHT22;18351;47.560;9.708;2023-02-19T08:37:45;9.40;99.90
31783;DHT22;18351;47.560;9.708;2023-02-19T08:40:11;9.50;99.90
31783;DHT22;18351;47.560;9.708;2023-02-19T08:42:36;9.50;99.90
31783;DHT22;18351;47.560;9.708;2023-02-19T08:45:03;9.50;99.90
31783;DHT22;18351;47.560;9.708;2023-02-19T08:47:29;9.70;99.90
31783;DHT22;18351;47.560;9.708;2023-02-19T08:49:54;9.70;99.90
31783;DHT22;18351;47.560;9.708;2023-02-19T08:52:20;9.70;99.90
31783;DHT22;18351;47.560;9.708;2023-02-19T08:54:45;9.80;99.90
31783;DHT22;18351;47.560;9.708;2023-02-19T08:57:11;9.90;99.90
31783;DHT22;18351;47.560;9.708;2023-02-19T08:59:36;9.90;99.90
31783;DHT22;18351;47.560;9.708;2023-02-19T09:02:02;9.90;99.90
31783;DHT22;18351;47.560;9.708;2023-02-19T09:04:27;9.90;99.90
31783;DHT22;18351;47.560;9.708;2023-02-19T09:06:53;9.90;99.90
31783;DHT22;18351;47.560;9.708;2023-02-19T09:09:19;9.80;99.90
31783;DHT22;18351;47.560;9.708;2023-02-19T09:11:45;9.90;99.90
31783;DHT22;18351;47.560;9.708;2023-02-19T09:14:11;10.00;99.90
31783;DHT22;18351;47.560;9.708;2023-02-19T09:16:36;10.00;99.90
31783;DHT22;18351;47.560;9.708;2023-02-19T09:19:03;10.00;99.90
31783;DHT22;18351;47.560;9.708;2023-02-19T09:21:29;10.10;99.90
31783;DHT22;18351;47.560;9.708;2023-02-19T09:23:55;10.20;99.90
31783;DHT22;18351;47.560;9.708;2023-02-19T09:26:20;10.20;99.90
31783;DHT22;18351;47.560;9.708;2023-02-19T09:28:46;10.30;99.90
31783;DHT22;18351;47.560;9.708;2023-02-19T09:31:13;10.40;99.90
31783;DHT22;18351;47.560;9.708;2023-02-19T09:33:43;10.50;99.90
31783;DHT22;18351;47.560;9.708;2023-02-19T09:36:10;10.60;99.90
31783;DHT22;18351;47.560;9.708;2023-02-19T09:38:35;10.70;99.90
31783;DHT22;18351;47.560;9.708;2023-02-19T09:41:13;10.80;99.90
31783;DHT22;18351;47.560;9.708;2023-02-19T09:43:39;11.10;99.90
31783;DHT22;18351;47.560;9.708;2023-02-19T09:46:21;11.20;99.90
31783;DHT22;18351;47.560;9.708;2023-02-19T09:48:48;11.40;99.90
31783;DHT22;18351;47.560;9.708;2023-02-19T09:51:15;11.40;99.90
31783;DHT22;18351;47.560;9.708;2023-02-19T09:53:44;11.40;99.90
31783;DHT22;18351;47.560;9.708;2023-02-19T09:56:11;11.40;99.90
31783;DHT22;18351;47.560;9.708;2023-02-19T09:58:47;11.40;99.90
31783;DHT22;18351;47.560;9.708;2023-02-19T10:01:14;11.40;99.90
31783;DHT22;18351;47.560;9.708;2023-02-19T10:03:43;11.50;99.90
31783;DHT22;18351;47.560;9.708;2023-02-19T10:06:22;11.50;99.90
31783;DHT22;18351;47.560;9.708;2023-02-19T10:08:50;11.60;99.90
31783;DHT22;18351;47.560;9.708;2023-02-19T10:11:17;11.70;99.90
31783;DHT22;18351;47.560;9.708;2023-02-19T10:13:46;11.70;99.90
31783;DHT22;18351;47.560;9.708;2023-02-19T10:16:23;11.80;99.90
31783;DHT22;18351;47.560;9.708;2023-02-19T10:18:50;12.00;99.90
31783;DHT22;18351;47.560;9.708;2023-02-19T10:21:24;12.10;99.90
31783;DHT22;18351;47.560;9.708;2023-02-19T10:23:53;12.20;99.90
31783;DHT22;18351;47.560;9.708;2023-02-19T10:26:21;12.40;99.90
31783;DHT22;18351;47.560;9.708;2023-02-19T10:28:47;12.40;99.90
31783;DHT22;18351;47.560;9.708;2023-02-19T10:31:18;12.40;99.90
31783;DHT22;18351;47.560;9.708;2023-02-19T10:33:55;12.60;99.90
31783;DHT22;18351;47.560;9.708;2023-02-19T10:36:40;12.60;99.90
31783;DHT22;18351;47.560;9.708;2023-02-19T10:41:49;12.60;99.90
31783;DHT22;18351;47.560;9.708;2023-02-19T10:44:22;12.60;99.90
31783;DHT22;18351;47.560;9.708;2023-02-19T10:46:50;12.60;99.90
31783;DHT22;18351;47.560;9.708;2023-02-19T10:49:33;12.60;99.90
31783;DHT22;18351;47.560;9.708;2023-02-19T10:52:23;12.50;99.90
31783;DHT22;18351;47.560;9.708;2023-02-19T10:55:23;13.70;99.90
31783;DHT22;18351;47.560;9.708;2023-02-19T10:57:50;12.50;99.90
31783;DHT22;18351;47.560;9.708;2023-02-19T11:02:42;12.30;99.90
31783;DHT22;18351;47.560;9.708;2023-02-19T11:07:42;12.30;99.90
31783;DHT22;18351;47.560;9.708;2023-02-19T11:10:25;12.30;99.90
31783;DHT22;18351;47.560;9.708;2023-02-19T11:12:54;12.30;99.90
31783;DHT22;18351;47.560;9.708;2023-02-19T11:15:27;12.30;99.90
31783;DHT22;18351;47.560;9.708;2023-02-19T11:20:31;12.30;99.90
31783;DHT22;18351;47.560;9.708;2023-02-19T11:23:00;12.20;99.90
31783;DHT22;18351;47.560;9.708;2023-02-19T11:25:28;12.20;99.90
31783;DHT22;18351;47.560;9.708;2023-02-19T11:28:06;12.30;99.90
31783;DHT22;18351;47.560;9.708;2023-02-19T11:30:39;12.30;99.90
31783;DHT22;18351;47.560;9.708;2023-02-19T11:33:25;12.40;99.90
31783;DHT22;18351;47.560;9.708;2023-02-19T11:36:20;12.50;99.90
31783;DHT22;18351;47.560;9.708;2023-02-19T11:38:44;12.50;99.90
31783;DHT22;18351;47.560;9.708;2023-02-19T11:41:26;12.60;99.90
31783;DHT22;18351;47.560;9.708;2023-02-19T11:46:41;12.80;99.90
31783;DHT22;18351;47.560;9.708;2023-02-19T11:54:50;12.30;99.90
31783;DHT22;18351;47.560;9.708;2023-02-19T11:57:38;12.10;99.90
31783;DHT22;18351;47.560;9.708;2023-02-19T12:03:00;11.90;99.90
31783;DHT22;18351;47.560;9.708;2023-02-19T12:11:39;11.60;99.90
31783;DHT22;18351;47.560;9.708;2023-02-19T12:17:29;11.70;99.90
31783;DHT22;18351;47.560;9.708;2023-02-19T12:20:17;11.70;99.90
31783;DHT22;18351;47.560;9.708;2023-02-19T12:28:35;11.80;99.90
31783;DHT22;18351;47.560;9.708;2023-02-19T12:39:29;11.90;99.90
31783;DHT22;18351;47.560;9.708;2023-02-19T12:45:18;12.00;99.90
31783;DHT22;18351;47.560;9.708;2023-02-19T12:47:56;12.10;99.90
31783;DHT22;18351;47.560;9.708;2023-02-19T12:50:26;12.00;99.90
31783;DHT22;18351;47.560;9.708;2023-02-19T12:53:14;12.00;99.90
31783;DHT22;18351;47.560;9.708;2023-02-19T12:55:43;12.00;99.90
31783;DHT22;18351;47.560;9.708;2023-02-19T12:59:02;11.90;99.90
31783;DHT22;18351;47.560;9.708;2023-02-19T13:01:09;11.90;99.90
31783;DHT22;18351;47.560;9.708;2023-02-19T13:03:40;11.90;99.90
31783;DHT22;18351;47.560;9.708;2023-02-19T13:09:06;12.00;99.90
31783;DHT22;18351;47.560;9.708;2023-02-19T13:11:52;12.00;99.90
31783;DHT22;18351;47.560;9.708;2023-02-19T13:14:36;12.10;99.90
31783;DHT22;18351;47.560;9.708;2023-02-19T13:17:12;12.30;99.90
31783;DHT22;18351;47.560;9.708;2023-02-19T13:19:42;12.50;99.90
31783;DHT22;18351;47.560;9.708;2023-02-19T13:22:41;12.60;99.90
31783;DHT22;18351;47.560;9.708;2023-02-19T13:25:40;12.70;99.90
31783;DHT22;18351;47.560;9.708;2023-02-19T13:31:21;12.70;99.90
31783;DHT22;18351;47.560;9.708;2023-02-19T13:33:57;12.60;99.90
31783;DHT22;18351;47.560;9.708;2023-02-19T13:36:26;12.50;99.90
31783;DHT22;18351;47.560;9.708;2023-02-19T13:38:53;12.40;99.90
31783;DHT22;18351;47.560;9.708;2023-02-19T13:41:34;12.40;99.90
31783;DHT22;18351;47.560;9.708;2023-02-19T13:44:04;12.40;99.90
31783;DHT22;18351;47.560;9.708;2023-02-19T13:46:40;12.40;99.90
31783;DHT22;18351;47.560;9.708;2023-02-19T13:49:41;12.30;99.90
31783;DHT22;18351;47.560;9.708;2023-02-19T14:01:02;12.30;99.90
31783;DHT22;18351;47.560;9.708;2023-02-19T14:03:43;12.30;99.90
31783;DHT22;18351;47.560;9.708;2023-02-19T14:06:10;12.30;99.90
31783;DHT22;18351;47.560;9.708;2023-02-19T14:08:57;12.10;99.90
31783;DHT22;18351;47.560;9.708;2023-02-19T14:14:33;11.90;99.90
31783;DHT22;18351;47.560;9.708;2023-02-19T14:25:26;11.70;99.90
31783;DHT22;18351;47.560;9.708;2023-02-19T14:30:54;12.00;99.90
31783;DHT22;18351;47.560;9.708;2023-02-19T14:33:26;12.00;99.90
31783;DHT22;18351;47.560;9.708;2023-02-19T14:36:10;12.00;99.90
31783;DHT22;18351;47.560;9.708;2023-02-19T14:38:45;12.00;99.90
31783;DHT22;18351;47.560;9.708;2023-02-19T14:41:13;11.90;99.90
31783;DHT22;18351;47.560;9.708;2023-02-19T14:43:40;11.80;99.90
31783;DHT22;18351;47.560;9.708;2023-02-19T14:46:28;11.70;99.90
31783;DHT22;18351;47.560;9.708;2023-02-19T14:51:51;11.60;99.90
31783;DHT22;18351;47.560;9.708;2023-02-19T14:54:24;11.50;99.90
31783;DHT22;18351;47.560;9.708;2023-02-19T14:56:53;11.50;99.90
31783;DHT22;18351;47.560;9.708;2023-02-19T14:59:21;11.40;99.90
31783;DHT22;18351;47.560;9.708;2023-02-19T15:02:14;11.30;99.90
31783;DHT22;18351;47.560;9.708;2023-02-19T15:04:41;11.20;99.90
31783;DHT22;18351;47.560;9.708;2023-02-19T15:07:09;11.20;99.90
31783;DHT22;18351;47.560;9.708;2023-02-19T15:09:39;11.10;99.90
31783;DHT22;18351;47.560;9.708;2023-02-19T15:12:11;11.20;99.90
31783;DHT22;18351;47.560;9.708;2023-02-19T15:14:38;11.10;99.90
31783;DHT22;18351;47.560;9.708;2023-02-19T15:17:05;11.10;99.90
31783;DHT22;18351;47.560;9.708;2023-02-19T15:19:33;11.10;99.90
31783;DHT22;18351;47.560;9.708;2023-02-19T15:22:00;11.00;99.90
31783;DHT22;18351;47.560;9.708;2023-02-19T15:24:27;11.00;99.90
31783;DHT22;18351;47.560;9.708;2023-02-19T15:26:53;11.00;99.90
31783;DHT22;18351;47.560;9.708;2023-02-19T15:29:22;11.00;99.90
31783;DHT22;18351;47.560;9.708;2023-02-19T15:31:59;10.90;99.90
31783;DHT22;18351;47.560;9.708;2023-02-19T15:34:27;10.90;99.90
31783;DHT22;18351;47.560;9.708;2023-02-19T15:37:04;10.80;99.90
31783;DHT22;18351;47.560;9.708;2023-02-19T15:39:37;10.70;99.90
31783;DHT22;18351;47.560;9.708;2023-02-19T15:42:05;10.70;99.90
31783;DHT22;18351;47.560;9.708;2023-02-19T15:45:10;10.80;99.90
31783;DHT22;18351;47.560;9.708;2023-02-19T15:50:12;10.80;99.90
31783;DHT22;18351;47.560;9.708;2023-02-19T15:53:06;10.80;99.90
31783;DHT22;18351;47.560;9.708;2023-02-19T15:58:34;10.80;99.90
31783;DHT22;18351;47.560;9.708;2023-02-19T16:01:04;10.70;99.90
31783;DHT22;18351;47.560;9.708;2023-02-19T16:03:32;10.70;99.90
31783;DHT22;18351;47.560;9.708;2023-02-19T16:06:11;10.60;99.90
31783;DHT22;18351;47.560;9.708;2023-02-19T16:13:52;10.40;99.90
31783;DHT22;18351;47.560;9.708;2023-02-19T16:16:37;10.30;99.90
31783;DHT22;18351;47.560;9.708;2023-02-19T16:19:04;10.40;99.90
31783;DHT22;18351;47.560;9.708;2023-02-19T16:21:29;10.30;99.90
31783;DHT22;18351;47.560;9.708;2023-02-19T16:24:11;10.30;99.90
31783;DHT22;18351;47.560;9.708;2023-02-19T16:26:42;10.30;99.90
31783;DHT22;18351;47.560;9.708;2023-02-19T16:29:22;10.30;99.90
31783;DHT22;18351;47.560;9.708;2023-02-19T16:31:54;10.30;99.90
31783;DHT22;18351;47.560;9.708;2023-02-19T16:34:40;10.20;99.90
31783;DHT22;18351;47.560;9.708;2023-02-19T16:45:19;10.00;99.90
31783;DHT22;18351;47.560;9.708;2023-02-19T16:47:45;10.00;99.90
31783;DHT22;18351;47.560;9.708;2023-02-19T16:50:18;10.00;99.90
31783;DHT22;18351;47.560;9.708;2023-02-19T16:55:20;9.90;99.90
31783;DHT22;18351;47.560;9.708;2023-02-19T16:57:46;10.00;99.90
31783;DHT22;18351;47.560;9.708;2023-02-19T17:00:22;9.90;99.90
31783;DHT22;18351;47.560;9.708;2023-02-19T17:02:50;9.90;99.90
31783;DHT22;18351;47.560;9.708;2023-02-19T17:05:17;9.90;99.90
31783;DHT22;18351;47.560;9.708;2023-02-19T17:07:43;9.90;99.90
31783;DHT22;18351;47.560;9.708;2023-02-19T17:10:20;9.90;99.90
31783;DHT22;18351;47.560;9.708;2023-02-19T17:12:53;9.80;99.90
31783;DHT22;18351;47.560;9.708;2023-02-19T17:15:20;9.80;99.90
31783;DHT22;18351;47.560;9.708;2023-02-19T17:17:46;9.80;99.90
31783;DHT22;18351;47.560;9.708;2023-02-19T17:20:25;9.70;99.90
31783;DHT22;18351;47.560;9.708;2023-02-19T17:22:52;9.70;99.90
31783;DHT22;18351;47.560;9.708;2023-02-19T17:25:18;9.70;99.90
31783;DHT22;18351;47.560;9.708;2023-02-19T17:27:44;9.60;99.90
31783;DHT22;18351;47.560;9.708;2023-02-19T17:30:21;9.70;99.90
31783;DHT22;18351;47.560;9.708;2023-02-19T17:32:47;9.70;99.90
31783;DHT22;18351;47.560;9.708;2023-02-19T17:35:13;9.70;99.90
31783;DHT22;18351;47.560;9.708;2023-02-19T17:37:38;9.70;99.90
31783;DHT22;18351;47.560;9.708;2023-02-19T17:40:18;9.70;99.90
31783;DHT22;18351;47.560;9.708;2023-02-19T17:42:44;9.60;99.90
31783;DHT22;18351;47.560;9.708;2023-02-19T17:45:09;9.60;99.90
31783;DHT22;18351;47.560;9.708;2023-02-19T17:47:35;9.60;99.90
31783;DHT22;18351;47.560;9.708;2023-02-19T17:50:00;9.60;99.90
31783;DHT22;18351;47.560;9.708;2023-02-19T17:52:26;9.60;99.90
31783;DHT22;18351;47.560;9.708;2023-02-19T17:54:53;9.60;99.90
31783;DHT22;18351;47.560;9.708;2023-02-19T17:57:19;9.70;99.90
31783;DHT22;18351;47.560;9.708;2023-02-19T17:59:44;9.60;99.90
31783;DHT22;18351;47.560;9.708;2023-02-19T18:02:10;9.60;99.90
31783;DHT22;18351;47.560;9.708;2023-02-19T18:04:35;9.60;99.90
31783;DHT22;18351;47.560;9.708;2023-02-19T18:07:01;9.50;99.90
31783;DHT22;18351;47.560;9.708;2023-02-19T18:09:27;9.50;99.90